createdAt,value
2018-02-03T00:00:13.236Z,21.4
2018-02-03T00:02:10.072Z,21.4
2018-02-03T00:04:04.903Z,21.4
2018-02-03T00:06:07.213Z,21.4
2018-02-03T00:08:05.060Z,21.4
2018-02-03T00:10:07.378Z,21.4
2018-02-03T00:12:07.153Z,21.4
2018-02-03T00:14:07.420Z,21.4
2018-02-03T00:16:07.242Z,21.4
2018-02-03T00:18:05.340Z,21.4
2018-02-03T00:20:07.689Z,21.4
2018-02-03T00:22:05.489Z,21.4
2018-02-03T00:24:05.220Z,21.4
2018-02-03T00:26:04.928Z,21.4
2018-02-03T00:28:09.745Z,21.3
2018-02-03T00:30:08.121Z,21.4
2018-02-03T00:32:05.504Z,21.4
2018-02-03T00:34:10.373Z,21.4
2018-02-03T00:36:07.764Z,21.3
2018-02-03T00:38:08.065Z,21.4
2018-02-03T00:40:10.173Z,21.3
2018-02-03T00:42:05.589Z,21.4
2018-02-03T00:44:05.361Z,21.4
2018-02-03T00:46:05.133Z,21.3
2018-02-03T00:48:05.125Z,21.3
2018-02-03T00:50:07.457Z,21.3
2018-02-03T00:52:06.221Z,21.3
2018-02-03T00:54:04.895Z,21.3
2018-02-03T00:56:04.640Z,21.4
2018-02-03T00:58:05.474Z,21.3
2018-02-03T01:00:05.223Z,21.3
2018-02-03T01:02:08.065Z,21.3
2018-02-03T01:04:07.395Z,21.3
2018-02-03T01:06:10.285Z,21.3
2018-02-03T01:08:05.085Z,21.3
2018-02-03T01:10:04.820Z,21.3
2018-02-03T01:12:05.562Z,21.3
2018-02-03T01:14:07.871Z,21.3
2018-02-03T01:16:05.642Z,21.3
2018-02-03T01:18:04.689Z,21.3
2018-02-03T01:20:05.448Z,21.3
2018-02-03T01:22:08.022Z,21.3
2018-02-03T01:24:09.802Z,21.3
2018-02-03T01:26:05.591Z,21.3
2018-02-03T01:28:07.960Z,21.3
2018-02-03T01:30:04.773Z,21.3
2018-02-03T01:32:05.537Z,21.3
2018-02-03T01:34:15.500Z,21.3
2018-02-03T01:36:05.783Z,21.3
2018-02-03T01:38:05.544Z,21.3
2018-02-03T01:40:05.393Z,21.3
2018-02-03T01:42:04.773Z,21.3
2018-02-03T01:44:08.053Z,21.3
2018-02-03T01:46:11.268Z,21.3
2018-02-03T01:48:05.529Z,21.3
2018-02-03T01:50:05.400Z,21.3
2018-02-03T01:52:05.525Z,21.3
2018-02-03T01:54:07.866Z,21.3
2018-02-03T01:56:04.686Z,21.3
2018-02-03T01:58:10.525Z,21.3
2018-02-03T02:00:12.883Z,21.3
2018-02-03T02:02:04.754Z,21.3
2018-02-03T02:04:04.989Z,21.3
2018-02-03T02:06:04.792Z,21.3
2018-02-03T02:08:05.063Z,21.3
2018-02-03T02:10:07.384Z,21.3
2018-02-03T02:12:07.713Z,21.3
2018-02-03T02:14:07.605Z,21.3
2018-02-03T02:16:05.353Z,21.3
2018-02-03T02:18:05.356Z,21.3
2018-02-03T02:20:05.095Z,21.3
2018-02-03T02:22:05.391Z,21.3
2018-02-03T02:24:05.252Z,21.3
2018-02-03T02:26:05.095Z,21.3
2018-02-03T02:28:09.953Z,21.2
2018-02-03T02:30:04.951Z,21.3
2018-02-03T02:32:04.667Z,21.3
2018-02-03T02:34:10.801Z,21.3
2018-02-03T02:36:05.601Z,21.3
2018-02-03T02:38:05.404Z,21.3
2018-02-03T02:40:07.717Z,21.3
2018-02-03T02:42:05.555Z,21.3
2018-02-03T02:44:05.406Z,21.3
2018-02-03T02:46:05.216Z,21.3
2018-02-03T02:48:07.500Z,21.3
2018-02-03T02:50:05.301Z,21.3
2018-02-03T02:52:10.681Z,21.3
2018-02-03T02:54:07.975Z,21.3
2018-02-03T02:56:07.271Z,21.3
2018-02-03T02:58:05.029Z,21.3
2018-02-03T03:00:04.805Z,21.3
2018-02-03T03:02:07.614Z,21.3
2018-02-03T03:04:07.932Z,21.3
2018-02-03T03:06:04.667Z,21.2
2018-02-03T03:08:07.944Z,21.3
2018-02-03T03:10:04.704Z,21.3
2018-02-03T03:12:10.633Z,21.3
2018-02-03T03:14:04.972Z,21.3
2018-02-03T03:16:04.851Z,21.3
2018-02-03T03:18:04.837Z,21.3
2018-02-03T03:20:04.667Z,21.3
2018-02-03T03:22:05.438Z,21.3
2018-02-03T03:24:05.242Z,21.3
2018-02-03T03:26:04.999Z,21.3
2018-02-03T03:28:05.117Z,21.3
2018-02-03T03:30:07.381Z,21.3
2018-02-03T03:32:05.178Z,21.3
2018-02-03T03:34:07.460Z,21.3
2018-02-03T03:36:05.234Z,21.3
2018-02-03T03:38:04.973Z,21.3
2018-02-03T03:40:04.747Z,21.3
2018-02-03T03:42:08.079Z,21.3
2018-02-03T03:44:04.795Z,21.2
2018-02-03T03:46:05.519Z,21.3
2018-02-03T03:48:05.216Z,21.3
2018-02-03T03:50:05.067Z,21.2
2018-02-03T03:52:05.607Z,21.3
2018-02-03T03:54:05.324Z,21.3
2018-02-03T03:56:04.677Z,21.3
2018-02-03T03:58:05.802Z,21.3
2018-02-03T04:00:05.255Z,21.3
2018-02-03T04:02:04.968Z,21.3
2018-02-03T04:04:04.833Z,21.3
2018-02-03T04:06:08.103Z,21.3
2018-02-03T04:08:07.461Z,21.3
2018-02-03T04:10:05.289Z,21.3
2018-02-03T04:12:05.293Z,21.3
2018-02-03T04:14:05.080Z,21.3
2018-02-03T04:16:05.172Z,21.3
2018-02-03T04:18:07.678Z,21.3
2018-02-03T04:20:04.961Z,21.3
2018-02-03T04:22:04.721Z,21.3
2018-02-03T04:24:05.483Z,21.3
2018-02-03T04:26:05.358Z,21.3
2018-02-03T04:28:05.485Z,21.3
2018-02-03T04:30:10.282Z,21.3
2018-02-03T04:32:05.574Z,21.3
2018-02-03T04:34:05.177Z,21.3
2018-02-03T04:36:04.994Z,21.3
2018-02-03T04:38:04.868Z,21.3
2018-02-03T04:40:04.711Z,21.3
2018-02-03T04:42:10.640Z,21.3
2018-02-03T04:44:05.385Z,21.3
2018-02-03T04:46:07.959Z,21.3
2018-02-03T04:48:04.751Z,21.3
2018-02-03T04:50:05.547Z,21.3
2018-02-03T04:52:04.948Z,21.3
2018-02-03T04:54:07.312Z,21.3
2018-02-03T04:56:05.077Z,21.3
2018-02-03T04:58:04.885Z,21.3
2018-02-03T05:00:04.768Z,21.3
2018-02-03T05:02:05.538Z,21.3
2018-02-03T05:04:05.491Z,21.3
2018-02-03T05:06:05.230Z,21.3
2018-02-03T05:08:04.996Z,21.3
2018-02-03T05:10:09.827Z,21.3
2018-02-03T05:12:05.606Z,21.3
2018-02-03T05:14:07.872Z,21.3
2018-02-03T05:16:09.708Z,21.3
2018-02-03T05:18:04.700Z,21.3
2018-02-03T05:20:05.546Z,21.3
2018-02-03T05:22:05.333Z,21.3
2018-02-03T05:24:05.119Z,21.3
2018-02-03T05:26:04.921Z,21.3
2018-02-03T05:28:04.989Z,21.3
2018-02-03T05:30:04.810Z,21.3
2018-02-03T05:32:05.589Z,21.3
2018-02-03T05:34:05.657Z,21.3
2018-02-03T05:36:07.970Z,21.3
2018-02-03T05:38:04.667Z,21.3
2018-02-03T05:40:05.477Z,21.3
2018-02-03T05:42:05.228Z,21.3
2018-02-03T05:44:07.503Z,21.3
2018-02-03T05:46:05.274Z,21.3
2018-02-03T05:48:04.996Z,21.3
2018-02-03T05:50:07.304Z,21.3
2018-02-03T05:52:05.093Z,21.3
2018-02-03T05:54:10.550Z,21.3
2018-02-03T05:56:05.334Z,21.3
2018-02-03T05:58:05.166Z,21.3
2018-02-03T06:00:04.926Z,21.3
2018-02-03T06:02:07.276Z,21.3
2018-02-03T06:04:07.589Z,21.3
2018-02-03T06:06:05.295Z,21.3
2018-02-03T06:08:05.614Z,21.3
2018-02-03T06:10:07.898Z,21.3
2018-02-03T06:12:05.628Z,21.3
2018-02-03T06:14:05.400Z,21.3
2018-02-03T06:16:07.699Z,21.3
2018-02-03T06:18:04.747Z,21.3
2018-02-03T06:20:05.526Z,21.3
2018-02-03T06:22:05.549Z,21.3
2018-02-03T06:24:05.564Z,21.3
2018-02-03T06:26:07.438Z,21.3
2018-02-03T06:28:05.207Z,21.3
2018-02-03T06:30:04.911Z,21.3
2018-02-03T06:32:10.010Z,21.3
2018-02-03T06:34:04.847Z,21.3
2018-02-03T06:36:04.648Z,21.3
2018-02-03T06:38:04.938Z,21.3
2018-02-03T06:40:04.946Z,21.3
2018-02-03T06:42:04.660Z,21.3
2018-02-03T06:44:05.476Z,21.3
2018-02-03T06:46:05.260Z,21.3
2018-02-03T06:48:07.537Z,21.3
2018-02-03T06:50:05.300Z,21.3
2018-02-03T06:52:07.575Z,21.2
2018-02-03T06:54:04.868Z,21.3
2018-02-03T06:56:05.741Z,21.3
2018-02-03T06:58:05.510Z,21.3
2018-02-03T07:00:04.687Z,21.2
2018-02-03T07:02:04.998Z,21.3
2018-02-03T07:04:07.313Z,21.3
2018-02-03T07:06:05.047Z,21.3
2018-02-03T07:08:04.851Z,21.3
2018-02-03T07:10:04.951Z,21.3
2018-02-03T07:12:07.367Z,21.3
2018-02-03T07:14:05.159Z,21.3
2018-02-03T07:16:04.915Z,21.3
2018-02-03T07:18:07.382Z,21.3
2018-02-03T07:20:07.634Z,21.3
2018-02-03T07:22:05.374Z,21.3
2018-02-03T07:24:07.655Z,21.3
2018-02-03T07:26:05.375Z,21.2
2018-02-03T07:28:05.123Z,21.3
2018-02-03T07:30:07.409Z,21.2
2018-02-03T07:32:05.139Z,21.2
2018-02-03T07:34:05.080Z,21.1
2018-02-03T07:36:04.865Z,21.1
2018-02-03T07:38:08.150Z,21.2
2018-02-03T07:40:09.954Z,21.2
2018-02-03T07:42:05.188Z,21.2
2018-02-03T07:44:05.204Z,21.3
2018-02-03T07:46:12.559Z,21.2
2018-02-03T07:48:05.300Z,21.3
2018-02-03T07:50:05.102Z,21.3
2018-02-03T07:52:05.073Z,21.2
2018-02-03T07:54:04.870Z,21.2
2018-02-03T07:56:08.133Z,21.2
2018-02-03T07:58:05.187Z,21.2
2018-02-03T08:00:05.011Z,21.2
2018-02-03T08:02:04.871Z,21.2
2018-02-03T08:04:04.957Z,21.2
2018-02-03T08:06:04.765Z,21.3
2018-02-03T08:08:08.035Z,21.3
2018-02-03T08:10:04.800Z,21.3
2018-02-03T08:12:05.562Z,21.3
2018-02-03T08:14:05.324Z,21.3
2018-02-03T08:16:07.652Z,21.3
2018-02-03T08:18:07.655Z,21.3
2018-02-03T08:20:05.513Z,21.3
2018-02-03T08:22:05.228Z,21.3
2018-02-03T08:24:05.033Z,21.4
2018-02-03T08:26:05.094Z,21.4
2018-02-03T08:28:09.898Z,21.4
2018-02-03T08:30:07.175Z,21.4
2018-02-03T08:32:05.194Z,21.4
2018-02-03T08:34:10.592Z,21.4
2018-02-03T08:36:04.895Z,21.4
2018-02-03T08:38:07.134Z,21.5
2018-02-03T08:40:04.879Z,21.5
2018-02-03T08:42:04.687Z,21.5
2018-02-03T08:44:05.402Z,21.5
2018-02-03T08:46:05.170Z,21.6
2018-02-03T08:48:05.267Z,21.5
2018-02-03T08:50:05.587Z,21.5
2018-02-03T08:52:05.438Z,21.5
2018-02-03T08:54:07.761Z,21.5
2018-02-03T08:56:05.632Z,21.5
2018-02-03T08:58:07.957Z,21.5
2018-02-03T09:00:05.509Z,21.5
2018-02-03T09:02:05.343Z,21.5
2018-02-03T09:04:05.185Z,21.5
2018-02-03T09:06:04.976Z,21.5
2018-02-03T09:08:04.801Z,21.5
2018-02-03T09:10:05.590Z,21.5
2018-02-03T09:12:12.457Z,21.4
2018-02-03T09:14:05.183Z,21.4
2018-02-03T09:16:04.912Z,21.5
2018-02-03T09:18:07.437Z,21.4
2018-02-03T09:20:05.208Z,21.4
2018-02-03T09:22:07.537Z,21.5
2018-02-03T09:24:05.286Z,21.4
2018-02-03T09:26:05.063Z,21.4
2018-02-03T09:28:04.825Z,21.4
2018-02-03T09:30:05.596Z,21.4
2018-02-03T09:32:05.346Z,21.4
2018-02-03T09:34:08.197Z,21.4
2018-02-03T09:36:04.944Z,21.4
2018-02-03T09:38:04.707Z,21.4
2018-02-03T09:40:08.011Z,21.4
2018-02-03T09:42:05.322Z,21.4
2018-02-03T09:44:07.165Z,21.4
2018-02-03T09:46:04.918Z,21.4
2018-02-03T09:48:04.723Z,21.4
2018-02-03T09:50:05.511Z,21.4
2018-02-03T09:52:05.395Z,21.4
2018-02-03T09:54:09.705Z,21.4
2018-02-03T09:56:05.512Z,21.4
2018-02-03T09:58:05.266Z,21.4
2018-02-03T10:00:04.998Z,21.4
2018-02-03T10:02:10.134Z,21.5
2018-02-03T10:04:04.896Z,21.4
2018-02-03T10:06:07.705Z,21.5
2018-02-03T10:08:08.007Z,21.5
2018-02-03T10:10:04.826Z,21.5
2018-02-03T10:12:04.636Z,21.5
2018-02-03T10:14:05.376Z,21.5
2018-02-03T10:16:05.135Z,21.5
2018-02-03T10:18:05.087Z,21.5
2018-02-03T10:20:05.416Z,21.5
2018-02-03T10:22:05.161Z,21.5
2018-02-03T10:24:04.929Z,21.5
2018-02-03T10:26:04.763Z,21.5
2018-02-03T10:28:05.567Z,21.5
2018-02-03T10:30:05.323Z,21.5
2018-02-03T10:32:05.605Z,21.5
2018-02-03T10:34:05.579Z,21.5
2018-02-03T10:36:12.912Z,21.6
2018-02-03T10:38:05.184Z,21.6
2018-02-03T10:40:04.937Z,21.6
2018-02-03T10:42:05.235Z,21.6
2018-02-03T10:44:05.008Z,21.7
2018-02-03T10:46:04.803Z,21.7
2018-02-03T10:48:08.063Z,21.6
2018-02-03T10:50:04.783Z,21.6
2018-02-03T10:52:05.527Z,21.6
2018-02-03T10:54:04.850Z,21.7
2018-02-03T10:56:07.162Z,21.7
2018-02-03T10:58:05.486Z,21.7
2018-02-03T11:00:05.473Z,21.7
2018-02-03T11:02:04.765Z,21.7
2018-02-03T11:04:05.510Z,21.7
2018-02-03T11:06:05.062Z,21.7
2018-02-03T11:08:04.874Z,21.7
2018-02-03T11:10:05.692Z,21.7
2018-02-03T11:12:04.716Z,21.7
2018-02-03T11:14:05.749Z,21.7
2018-02-03T11:16:05.543Z,21.7
2018-02-03T11:18:05.519Z,21.7
2018-02-03T11:20:15.414Z,21.8
2018-02-03T11:22:05.410Z,21.8
2018-02-03T11:24:05.150Z,21.8
2018-02-03T11:26:04.903Z,21.8
2018-02-03T11:28:05.523Z,21.7
2018-02-03T11:30:07.402Z,21.5
2018-02-03T11:32:05.156Z,21.5
2018-02-03T11:34:08.044Z,21.4
2018-02-03T11:36:05.464Z,21.4
2018-02-03T11:38:05.273Z,21.4
2018-02-03T11:40:08.140Z,21.4
2018-02-03T11:42:04.953Z,21.4
2018-02-03T11:44:08.047Z,21.4
2018-02-03T11:46:04.832Z,21.4
2018-02-03T11:48:05.615Z,21.3
2018-02-03T11:50:05.421Z,21.3
2018-02-03T11:52:07.734Z,21.4
2018-02-03T11:54:05.463Z,21.4
2018-02-03T11:56:05.192Z,21.3
2018-02-03T11:58:04.942Z,21.3
2018-02-03T12:00:05.518Z,21.3
2018-02-03T12:02:04.810Z,21.4
2018-02-03T12:04:05.814Z,21.3
2018-02-03T12:06:05.558Z,21.4
2018-02-03T12:08:05.298Z,21.3
2018-02-03T12:10:05.360Z,21.3
2018-02-03T12:12:07.710Z,21.3
2018-02-03T12:14:07.997Z,21.3
2018-02-03T12:16:05.032Z,21.3
2018-02-03T12:18:04.953Z,21.3
2018-02-03T12:20:04.682Z,21.4
2018-02-03T12:22:05.432Z,21.4
2018-02-03T12:24:05.192Z,21.4
2018-02-03T12:26:05.537Z,21.4
2018-02-03T12:28:05.274Z,21.4
2018-02-03T12:30:05.556Z,21.4
2018-02-03T12:32:07.838Z,21.4
2018-02-03T12:34:05.462Z,21.5
2018-02-03T12:36:12.327Z,21.5
2018-02-03T12:38:05.097Z,21.5
2018-02-03T12:40:04.928Z,21.5
2018-02-03T12:42:04.694Z,21.5
2018-02-03T12:44:05.014Z,21.4
2018-02-03T12:46:04.748Z,21.4
2018-02-03T12:48:05.478Z,21.4
2018-02-03T12:50:07.835Z,21.4
2018-02-03T12:52:08.195Z,21.4
2018-02-03T12:54:05.010Z,21.4
2018-02-03T12:56:05.022Z,21.5
2018-02-03T12:58:05.071Z,21.4
2018-02-03T13:00:05.035Z,21.4
2018-02-03T13:02:04.791Z,21.4
2018-02-03T13:04:05.809Z,21.4
2018-02-03T13:06:05.572Z,21.4
2018-02-03T13:08:05.311Z,21.3
2018-02-03T13:10:05.458Z,21.4
2018-02-03T13:12:05.179Z,21.3
2018-02-03T13:14:04.926Z,21.3
2018-02-03T13:16:05.272Z,21.4
2018-02-03T13:18:05.218Z,21.3
2018-02-03T13:20:05.197Z,21.3
2018-02-03T13:22:05.304Z,21.3
2018-02-03T13:24:07.589Z,21.3
2018-02-03T13:26:08.081Z,21.4
2018-02-03T13:28:04.970Z,21.4
2018-02-03T13:30:04.778Z,21.4
2018-02-03T13:32:05.600Z,21.4
2018-02-03T13:34:08.210Z,21.4
2018-02-03T13:36:08.245Z,21.4
2018-02-03T13:38:05.017Z,21.4
2018-02-03T13:40:04.780Z,21.4
2018-02-03T13:42:05.509Z,21.4
2018-02-03T13:44:05.253Z,21.4
2018-02-03T13:46:05.263Z,21.4
2018-02-03T13:48:07.522Z,21.4
2018-02-03T13:50:05.369Z,21.4
2018-02-03T13:52:05.350Z,21.4
2018-02-03T13:54:07.666Z,21.5
2018-02-03T13:56:05.461Z,21.4
2018-02-03T13:58:05.208Z,21.5
2018-02-03T14:00:04.966Z,21.4
2018-02-03T14:02:04.694Z,21.4
2018-02-03T14:04:05.500Z,21.4
2018-02-03T14:06:05.471Z,21.5
2018-02-03T14:08:05.850Z,21.4
2018-02-03T14:10:04.951Z,21.5
2018-02-03T14:12:04.790Z,21.4
2018-02-03T14:14:05.094Z,21.5
2018-02-03T14:16:04.887Z,21.5
2018-02-03T14:18:04.843Z,21.5
2018-02-03T14:20:05.605Z,21.4
2018-02-03T14:22:08.144Z,21.5
2018-02-03T14:24:05.123Z,21.5
2018-02-03T14:26:04.869Z,21.5
2018-02-03T14:28:06.030Z,21.4
2018-02-03T14:30:04.785Z,21.4
2018-02-03T14:32:05.754Z,21.4
2018-02-03T14:34:05.012Z,21.5
2018-02-03T14:36:04.814Z,21.5
2018-02-03T14:38:10.192Z,21.5
2018-02-03T14:40:08.229Z,21.5
2018-02-03T14:42:04.957Z,21.5
2018-02-03T14:44:05.247Z,21.6
2018-02-03T14:46:07.555Z,21.6
2018-02-03T14:48:05.316Z,21.6
2018-02-03T14:50:08.188Z,21.6
2018-02-03T14:52:04.952Z,21.6
2018-02-03T14:54:04.724Z,21.5
2018-02-03T14:56:05.517Z,21.5
2018-02-03T14:58:05.427Z,21.5
2018-02-03T15:00:10.228Z,21.6
2018-02-03T15:02:04.953Z,21.6
2018-02-03T15:04:04.707Z,21.5
2018-02-03T15:06:05.469Z,21.5
2018-02-03T15:08:04.754Z,21.4
2018-02-03T15:10:05.573Z,21.5
2018-02-03T15:12:05.143Z,21.5
2018-02-03T15:14:07.386Z,21.5
2018-02-03T15:16:04.692Z,21.5
2018-02-03T15:18:07.257Z,21.5
2018-02-03T15:20:04.992Z,21.5
2018-02-03T15:22:09.916Z,21.5
2018-02-03T15:24:07.385Z,21.6
2018-02-03T15:26:05.380Z,21.6
2018-02-03T15:28:15.637Z,21.5
2018-02-03T15:30:07.971Z,21.5
2018-02-03T15:32:07.378Z,21.4
2018-02-03T15:34:07.805Z,21.4
2018-02-03T15:36:05.608Z,21.4
2018-02-03T15:38:17.996Z,21.3
2018-02-03T15:40:05.277Z,21.3
2018-02-03T15:42:05.578Z,21.3
2018-02-03T15:44:04.934Z,21.3
2018-02-03T15:46:04.740Z,21.3
2018-02-03T15:48:05.548Z,21.3
2018-02-03T15:50:05.594Z,21.4
2018-02-03T15:52:04.848Z,21.3
2018-02-03T15:54:05.669Z,21.3
2018-02-03T15:56:07.569Z,21.3
2018-02-03T15:58:04.858Z,21.3
2018-02-03T16:00:10.666Z,21.3
2018-02-03T16:02:05.758Z,21.3
2018-02-03T16:04:05.604Z,21.3
2018-02-03T16:06:05.337Z,21.2
2018-02-03T16:08:05.687Z,21.2
2018-02-03T16:10:05.429Z,21.2
2018-02-03T16:12:05.154Z,21.3
2018-02-03T16:14:05.588Z,21.2
2018-02-03T16:16:05.662Z,21.3
2018-02-03T16:18:05.599Z,21.3
2018-02-03T16:20:05.367Z,21.3
2018-02-03T16:22:05.094Z,21.3
2018-02-03T16:24:04.896Z,21.2
2018-02-03T16:26:04.981Z,21.3
2018-02-03T16:28:04.749Z,21.2
2018-02-03T16:30:05.509Z,21.3
2018-02-03T16:32:10.030Z,21.3
2018-02-03T16:34:05.288Z,21.3
2018-02-03T16:36:05.083Z,21.3
2018-02-03T16:38:04.832Z,21.3
2018-02-03T16:40:04.673Z,21.3
2018-02-03T16:42:05.491Z,21.3
2018-02-03T16:44:05.082Z,21.3
2018-02-03T16:46:09.904Z,21.3
2018-02-03T16:48:04.730Z,21.3
2018-02-03T16:50:10.552Z,21.2
2018-02-03T16:52:07.417Z,21.3
2018-02-03T16:54:05.347Z,21.3
2018-02-03T16:56:05.587Z,21.2
2018-02-03T16:58:05.361Z,21.3
2018-02-03T17:00:05.105Z,21.3
2018-02-03T17:02:07.457Z,21.3
2018-02-03T17:04:04.794Z,21.2
2018-02-03T17:06:05.066Z,21.2
2018-02-03T17:08:09.848Z,21.2
2018-02-03T17:10:05.601Z,21.2
2018-02-03T17:12:10.424Z,21.2
2018-02-03T17:14:05.617Z,21.2
2018-02-03T17:16:05.452Z,21.3
2018-02-03T17:18:10.491Z,21.3
2018-02-03T17:20:04.777Z,21.3
2018-02-03T17:22:08.168Z,21.2
2018-02-03T17:24:09.985Z,21.2
2018-02-03T17:26:05.094Z,21.2
2018-02-03T17:28:04.827Z,21.2
2018-02-03T17:30:05.545Z,21.3
2018-02-03T17:32:07.879Z,21.2
2018-02-03T17:34:04.823Z,21.2
2018-02-03T17:36:05.597Z,21.3
2018-02-03T17:38:05.772Z,21.3
2018-02-03T17:40:05.741Z,21.3
2018-02-03T17:42:07.619Z,21.3
2018-02-03T17:44:05.643Z,21.2
2018-02-03T17:46:05.486Z,21.3
2018-02-03T17:48:10.415Z,21.3
2018-02-03T17:50:05.396Z,21.3
2018-02-03T17:52:07.972Z,21.3
2018-02-03T17:54:04.718Z,21.3
2018-02-03T17:56:05.457Z,21.3
2018-02-03T17:58:05.241Z,21.3
2018-02-03T18:00:05.111Z,21.3
2018-02-03T18:02:04.935Z,21.3
2018-02-03T18:04:04.748Z,21.2
2018-02-03T18:06:05.495Z,21.3
2018-02-03T18:08:05.499Z,21.3
2018-02-03T18:10:05.229Z,21.3
2018-02-03T18:12:04.974Z,21.3
2018-02-03T18:14:05.230Z,21.3
2018-02-03T18:16:05.046Z,21.3
2018-02-03T18:18:10.609Z,21.3
2018-02-03T18:20:07.904Z,21.3
2018-02-03T18:22:07.201Z,21.3
2018-02-03T18:24:05.068Z,21.3
2018-02-03T18:26:05.023Z,21.3
2018-02-03T18:28:04.750Z,21.3
2018-02-03T18:30:07.759Z,21.3
2018-02-03T18:32:13.121Z,21.3
2018-02-03T18:34:05.081Z,21.3
2018-02-03T18:36:05.412Z,21.3
2018-02-03T18:38:05.157Z,21.3
2018-02-03T18:40:05.214Z,21.2
2018-02-03T18:42:05.208Z,21.3
2018-02-03T18:44:07.787Z,21.3
2018-02-03T18:46:05.534Z,21.2
2018-02-03T18:48:04.804Z,21.3
2018-02-03T18:50:05.567Z,21.3
2018-02-03T18:52:05.416Z,21.3
2018-02-03T18:54:05.225Z,21.3
2018-02-03T18:56:07.540Z,21.3
2018-02-03T18:58:05.517Z,21.3
2018-02-03T19:00:10.331Z,21.3
2018-02-03T19:02:04.743Z,21.2
2018-02-03T19:04:10.057Z,21.3
2018-02-03T19:06:07.433Z,21.3
2018-02-03T19:08:17.975Z,21.3
2018-02-03T19:10:09.788Z,21.3
2018-02-03T19:12:05.551Z,21.3
2018-02-03T19:14:05.639Z,21.3
2018-02-03T19:16:13.016Z,21.3
2018-02-03T19:18:04.946Z,21.2
2018-02-03T19:20:07.264Z,21.3
2018-02-03T19:22:10.080Z,21.3
2018-02-03T19:24:04.840Z,21.3
2018-02-03T19:26:05.620Z,21.3
2018-02-03T19:28:08.124Z,21.3
2018-02-03T19:30:07.471Z,21.3
2018-02-03T19:32:05.195Z,21.3
2018-02-03T19:34:05.515Z,21.3
2018-02-03T19:36:05.348Z,21.3
2018-02-03T19:38:10.174Z,21.3
2018-02-03T19:40:04.925Z,21.3
2018-02-03T19:42:04.679Z,21.3
2018-02-03T19:44:05.682Z,21.3
2018-02-03T19:46:04.633Z,21.3
2018-02-03T19:48:10.414Z,21.3
2018-02-03T19:50:05.428Z,21.3
2018-02-03T19:52:05.219Z,21.3
2018-02-03T19:54:07.504Z,21.3
2018-02-03T19:56:04.955Z,21.3
2018-02-03T19:58:05.297Z,21.3
2018-02-03T20:00:05.280Z,21.3
2018-02-03T20:02:05.549Z,21.3
2018-02-03T20:04:05.315Z,21.3
2018-02-03T20:06:07.612Z,21.3
2018-02-03T20:08:04.912Z,21.3
2018-02-03T20:10:04.755Z,21.3
2018-02-03T20:12:05.469Z,21.3
2018-02-03T20:14:05.326Z,21.3
2018-02-03T20:16:05.076Z,21.3
2018-02-03T20:18:07.772Z,21.3
2018-02-03T20:20:08.066Z,21.3
2018-02-03T20:22:05.815Z,21.3
2018-02-03T20:24:05.570Z,21.3
2018-02-03T20:26:05.601Z,21.3
2018-02-03T20:28:05.547Z,21.3
2018-02-03T20:30:05.317Z,21.3
2018-02-03T20:32:10.158Z,21.3
2018-02-03T20:34:12.477Z,21.3
2018-02-03T20:36:04.796Z,21.3
2018-02-03T20:38:05.588Z,21.3
2018-02-03T20:40:05.383Z,21.3
2018-02-03T20:42:12.792Z,21.3
2018-02-03T20:44:04.723Z,21.3
2018-02-03T20:46:05.637Z,21.3
2018-02-03T20:48:10.116Z,21.3
2018-02-03T20:50:04.904Z,21.3
2018-02-03T20:52:04.719Z,21.3
2018-02-03T20:54:05.208Z,21.3
2018-02-03T20:56:07.516Z,21.3
2018-02-03T20:58:05.308Z,21.3
2018-02-03T21:00:05.213Z,21.3
2018-02-03T21:02:06.852Z,21.3
2018-02-03T21:04:05.757Z,21.3
2018-02-03T21:06:07.170Z,21.3
2018-02-03T21:08:08.048Z,21.3
2018-02-03T21:10:05.298Z,21.3
2018-02-03T21:12:05.061Z,21.3
2018-02-03T21:14:07.586Z,21.3
2018-02-03T21:16:12.474Z,21.3
2018-02-03T21:18:05.435Z,21.3
2018-02-03T21:20:05.262Z,21.3
2018-02-03T21:22:05.502Z,21.3
2018-02-03T21:24:05.263Z,21.3
2018-02-03T21:26:05.681Z,21.3
2018-02-03T21:28:07.573Z,21.3
2018-02-03T21:30:05.317Z,21.3
2018-02-03T21:32:05.424Z,21.3
2018-02-03T21:34:05.256Z,21.3
2018-02-03T21:36:07.621Z,21.3
2018-02-03T21:38:07.931Z,21.3
2018-02-03T21:40:04.681Z,21.3
2018-02-03T21:42:05.083Z,21.3
2018-02-03T21:44:05.241Z,21.3
2018-02-03T21:46:05.517Z,21.3
2018-02-03T21:48:07.909Z,21.3
2018-02-03T21:50:04.718Z,21.3
2018-02-03T21:52:07.988Z,21.3
2018-02-03T21:54:04.818Z,21.2
2018-02-03T21:56:12.440Z,21.2
2018-02-03T21:58:05.224Z,21.3
2018-02-03T22:00:04.999Z,21.2
2018-02-03T22:02:07.296Z,21.3
2018-02-03T22:04:05.120Z,21.3
2018-02-03T22:06:05.004Z,21.2
2018-02-03T22:08:04.813Z,21.3
2018-02-03T22:10:05.547Z,21.3
2018-02-03T22:12:05.406Z,21.3
2018-02-03T22:14:05.424Z,21.2
2018-02-03T22:16:05.176Z,21.3
2018-02-03T22:18:05.138Z,21.2
2018-02-03T22:20:07.473Z,21.3
2018-02-03T22:22:05.233Z,21.3
2018-02-03T22:24:07.574Z,21.3
2018-02-03T22:26:05.013Z,21.3
2018-02-03T22:28:10.371Z,21.3
2018-02-03T22:30:05.120Z,21.3
2018-02-03T22:32:12.437Z,21.2
2018-02-03T22:34:05.367Z,21.3
2018-02-03T22:36:08.082Z,21.3
2018-02-03T22:38:05.571Z,21.3
2018-02-03T22:40:05.742Z,21.3
2018-02-03T22:42:07.713Z,21.3
2018-02-03T22:44:05.405Z,21.3
2018-02-03T22:46:05.540Z,21.3
2018-02-03T22:48:12.543Z,21.3
2018-02-03T22:50:12.433Z,21.3
2018-02-03T22:52:05.254Z,21.3
2018-02-03T22:54:05.027Z,21.3
2018-02-03T22:56:04.794Z,21.3
2018-02-03T22:58:12.821Z,21.3
2018-02-03T23:00:08.156Z,21.3
2018-02-03T23:02:04.937Z,21.3
2018-02-03T23:04:07.222Z,21.3
2018-02-03T23:06:04.918Z,21.3
2018-02-03T23:08:09.807Z,21.3
2018-02-03T23:10:05.639Z,21.3
2018-02-03T23:12:05.429Z,21.3
2018-02-03T23:14:05.205Z,21.3
2018-02-03T23:16:08.034Z,21.3
2018-02-03T23:18:05.007Z,21.3
2018-02-03T23:20:05.290Z,21.3
2018-02-03T23:22:05.060Z,21.3
2018-02-03T23:24:05.092Z,21.3
2018-02-03T23:26:10.546Z,21.3
2018-02-03T23:28:05.566Z,21.3
2018-02-03T23:30:04.981Z,21.3
2018-02-03T23:32:07.586Z,21.3
2018-02-03T23:34:05.455Z,21.3
2018-02-03T23:36:05.400Z,21.3
2018-02-03T23:38:04.788Z,21.3
2018-02-03T23:40:04.807Z,21.3
2018-02-03T23:42:04.697Z,21.3
2018-02-03T23:44:05.566Z,21.4
2018-02-03T23:46:05.394Z,21.5
2018-02-03T23:48:07.725Z,21.4
2018-02-03T23:50:05.509Z,21.4
2018-02-03T23:52:04.825Z,21.5
2018-02-03T23:54:07.651Z,21.5
2018-02-03T23:56:10.569Z,21.5
2018-02-03T23:58:05.381Z,21.5
